LTAY/DNZ METAR and TAF weather

Enter ICAO airport designator
Station Type Date Time Source
LTAY METAR 2020/08/07 10:50 UTC NOAA

LTAY 071050Z 29009KT 250V350 9999 FEW035 36/07 Q1012


Station Type Date Time Source
LTAY Decoded METAR 2020/08/07 10:50 UTC NOAA

Cardak, Turkey (LTAY) 37-47N 029-42E
Aug 07, 2020 - 06:50 AM EDT / 2020.08.07 1050 UTC
Wind: from the WNW (290 degrees) at 10 MPH (9 KT) (direction variable):0
Visibility: greater than 7 mile(s):0
Sky conditions: mostly clear
Temperature: 96 F (36 C)
Dew Point: 44 F (7 C)
Relative Humidity: 16%
Pressure (altimeter): 29.88 in. Hg (1012 hPa)
ob: LTAY 071050Z 29009KT 250V350 9999 FEW035 36/07 Q1012
cycle: 11

Station Type Date Time Source
LTAY TAF UTC NOAA

Error!

Example: see airport list